Time;durP1;ratioP1;P1;durP2;ratioP2;P2;SDS_P1;SDS_P2;PMS_P1;PMS_P2;Temp;Humidity;BMP_temperature;BMP_pressure;BME280_temperature;BME280_humidity;BME280_pressure;Samples;Min_cycle;Max_cycle;Signal;HPM_P1;HPM_P2
2021/08/25 00:00:01;;;;;;;3.50;2.40;;;;;;;9.34;100.00;101633.56;5068382;28;20211;-72
2021/08/25 00:02:29;;;;;;;3.90;2.67;;;;;;;9.26;100.00;101631.88;5068817;28;20311;-72
2021/08/25 00:04:56;;;;;;;4.40;2.70;;;;;;;9.35;100.00;101628.38;5069029;28;20250;-72
2021/08/25 00:07:26;;;;;;;3.90;2.27;;;;;;;9.25;100.00;101624.06;5059406;28;20227;-72
2021/08/25 00:09:52;;;;;;;4.97;2.43;;;;;;;9.21;100.00;101631.03;5051447;28;20303;-72
2021/08/25 00:12:19;;;;;;;4.90;3.03;;;;;;;9.10;100.00;101632.81;5058655;28;20211;-72
2021/08/25 00:14:45;;;;;;;5.03;2.70;;;;;;;9.20;100.00;101626.72;5060876;28;20657;-72
2021/08/25 00:17:12;;;;;;;3.20;2.53;;;;;;;8.98;100.00;101635.47;5062607;28;20226;-72
2021/08/25 00:19:41;;;;;;;3.60;2.77;;;;;;;9.12;100.00;101635.41;5065375;28;20283;-72
2021/08/25 00:22:08;;;;;;;3.37;2.60;;;;;;;8.97;100.00;101639.81;5059046;28;20194;-72
2021/08/25 00:24:34;;;;;;;4.17;2.80;;;;;;;9.07;100.00;101630.22;5066880;28;20209;-72
2021/08/25 00:27:00;;;;;;;3.30;2.50;;;;;;;9.23;100.00;101620.63;5067468;28;20223;-73
2021/08/25 00:29:27;;;;;;;6.13;2.90;;;;;;;9.27;100.00;101627.56;5066841;28;20629;-72
2021/08/25 00:31:53;;;;;;;4.47;2.70;;;;;;;9.21;100.00;101625.81;5064735;28;20206;-72
2021/08/25 00:34:19;;;;;;;4.20;2.50;;;;;;;9.29;100.00;101618.84;5067966;28;20558;-72
2021/08/25 00:36:47;;;;;;;4.73;2.83;;;;;;;9.23;100.00;101631.03;5061041;28;20234;-72
2021/08/25 00:39:14;;;;;;;5.00;2.83;;;;;;;9.07;100.00;101625.03;5064468;28;20199;-72
2021/08/25 00:41:40;;;;;;;4.20;2.87;;;;;;;9.13;100.00;101619.81;5064429;28;20235;-72
2021/08/25 00:44:06;;;;;;;4.67;2.97;;;;;;;8.96;100.00;101619.88;5062276;28;20215;-72
2021/08/25 00:46:36;;;;;;;4.43;2.80;;;;;;;9.03;100.00;101618.97;5063335;28;20210;-72
2021/08/25 00:49:02;;;;;;;3.43;2.60;;;;;;;9.04;100.00;101620.72;5064935;28;20195;-72
2021/08/25 00:51:29;;;;;;;4.37;2.50;;;;;;;8.97;100.00;101613.81;5061851;28;20270;-72
2021/08/25 00:53:57;;;;;;;4.17;2.80;;;;;;;9.15;100.00;101606.78;5064120;28;20202;-72
2021/08/25 00:56:25;;;;;;;4.60;2.93;;;;;;;9.27;100.00;101605.00;5063926;28;20199;-72
2021/08/25 00:58:52;;;;;;;2.87;2.47;;;;;;;9.04;100.00;101605.09;5056615;28;20293;-72
2021/08/25 01:01:30;;;;;;;3.43;2.47;;;;;;;8.96;100.00;101606.00;5061824;28;20207;-72
2021/08/25 01:04:02;;;;;;;5.00;2.97;;;;;;;8.88;100.00;101603.41;5061024;28;20683;-72
2021/08/25 01:06:30;;;;;;;3.73;2.60;;;;;;;8.97;100.00;101598.19;5066422;28;20293;-72
2021/08/25 01:09:01;;;;;;;5.93;3.27;;;;;;;8.82;100.00;101598.25;5064848;28;20210;-72
2021/08/25 01:11:27;;;;;;;4.47;2.73;;;;;;;8.86;100.00;101595.59;5066633;28;20298;-72
2021/08/25 01:13:54;;;;;;;4.47;2.73;;;;;;;8.76;100.00;101603.44;5067209;28;20675;-72
2021/08/25 01:16:20;;;;;;;4.00;2.90;;;;;;;8.97;100.00;101597.31;5067004;28;20281;-72
2021/08/25 01:18:48;;;;;;;4.73;3.10;;;;;;;8.89;100.00;101597.34;5064289;28;20203;-72
2021/08/25 01:21:15;;;;;;;5.43;3.10;;;;;;;8.96;100.00;101596.44;5063048;28;20206;-72
2021/08/25 01:23:43;;;;;;;4.27;2.90;;;;;;;8.98;100.00;101593.84;5060221;28;20206;-72
2021/08/25 01:26:14;;;;;;;3.70;2.70;;;;;;;9.03;100.00;101586.91;5061509;28;20306;-72
2021/08/25 01:28:47;;;;;;;4.63;2.77;;;;;;;8.70;100.00;101584.41;5066197;28;20233;-72
2021/08/25 01:31:15;;;;;;;6.23;2.97;;;;;;;8.69;100.00;101587.03;5061280;28;20207;-72
2021/08/25 01:33:41;;;;;;;6.03;3.07;;;;;;;8.52;100.00;101580.13;5064949;28;20188;-72
2021/08/25 01:36:14;;;;;;;4.17;2.97;;;;;;;8.69;100.00;101587.88;5064922;28;20278;-72
2021/08/25 01:38:48;;;;;;;3.87;2.60;;;;;;;8.78;100.00;101580.94;5066338;28;20297;-72
2021/08/25 01:41:14;;;;;;;4.73;2.90;;;;;;;8.74;100.00;101580.03;5061652;28;20203;-72
2021/08/25 01:43:41;;;;;;;4.03;2.87;;;;;;;8.63;100.00;101580.09;5064083;28;20326;-72
2021/08/25 01:46:07;;;;;;;4.10;3.10;;;;;;;8.65;100.00;101578.38;5049069;28;20207;-72
2021/08/25 01:48:35;;;;;;;4.90;2.87;;;;;;;8.52;100.00;101574.06;5062913;28;20277;-72
2021/08/25 01:51:03;;;;;;;3.37;2.63;;;;;;;8.71;100.00;101574.88;5065727;28;20210;-72
2021/08/25 01:53:30;;;;;;;3.37;2.90;;;;;;;8.63;100.00;101577.47;5064829;28;20494;-72
2021/08/25 01:55:56;;;;;;;4.97;3.10;;;;;;;8.51;100.00;101577.50;5065768;28;20743;-72
2021/08/25 01:58:22;;;;;;;4.00;2.90;;;;;;;8.38;100.00;101573.19;5059462;28;20219;-72
2021/08/25 02:00:49;;;;;;;4.67;2.90;;;;;;;8.48;100.00;101562.81;5054868;28;20207;-72
2021/08/25 02:03:15;;;;;;;6.97;2.73;;;;;;;8.56;100.00;101556.72;5053765;28;20215;-72
2021/08/25 02:05:43;;;;;;;4.37;2.70;;;;;;;8.34;100.00;101555.00;5062551;28;20195;-72
2021/08/25 02:08:11;;;;;;;3.67;2.77;;;;;;;8.49;100.00;101554.13;5056563;28;20222;-72
2021/08/25 02:10:38;;;;;;;5.37;2.70;;;;;;;8.45;100.00;101555.00;5069587;28;20563;-72
2021/08/25 02:13:04;;;;;;;4.30;2.40;;;;;;;8.07;100.00;101557.63;5061244;28;20671;-72
2021/08/25 02:15:30;;;;;;;4.83;3.00;;;;;;;7.91;100.00;101564.56;5066376;28;20202;-72
2021/08/25 02:17:57;;;;;;;5.00;2.90;;;;;;;8.19;100.00;101552.44;5065106;28;20316;-72
2021/08/25 02:20:23;;;;;;;3.50;2.63;;;;;;;8.25;100.00;101546.34;5063290;28;20205;-72
2021/08/25 02:22:51;;;;;;;5.00;3.00;;;;;;;8.07;100.00;101550.72;5068820;28;20206;-72
2021/08/25 02:25:18;;;;;;;5.67;3.00;;;;;;;8.04;100.00;101552.44;5066406;28;20714;-72
2021/08/25 02:27:44;;;;;;;4.37;2.70;;;;;;;8.14;100.00;101549.84;5067378;28;20226;-72
2021/08/25 02:30:11;;;;;;;4.90;3.23;;;;;;;8.21;100.00;101549.84;5061771;28;20600;-72
2021/08/25 02:32:41;;;;;;;4.47;2.67;;;;;;;8.06;100.00;101550.72;5070463;28;20207;-72
2021/08/25 02:35:09;;;;;;;5.43;2.90;;;;;;;8.14;100.00;101544.66;5069772;28;20198;-72
2021/08/25 02:37:35;;;;;;;5.93;3.00;;;;;;;8.05;100.00;101542.06;5067514;28;20221;-72
2021/08/25 02:40:05;;;;;;;3.63;2.67;;;;;;;8.02;100.00;101544.69;5060899;28;20212;-72
2021/08/25 02:42:31;;;;;;;4.73;2.80;;;;;;;7.85;100.00;101538.63;5066461;28;20227;-72
2021/08/25 02:44:58;;;;;;;3.83;2.77;;;;;;;7.96;100.00;101540.31;5062382;28;20222;-72
2021/08/25 02:47:24;;;;;;;4.90;3.03;;;;;;;8.10;100.00;101532.53;5064070;28;20225;-72
2021/08/25 02:49:51;;;;;;;5.00;3.30;;;;;;;8.12;100.00;101525.59;5062260;28;20314;-72
2021/08/25 02:52:17;;;;;;;5.23;2.80;;;;;;;7.78;100.00;101520.44;5070373;28;20207;-72
2021/08/25 02:54:44;;;;;;;3.73;2.77;;;;;;;7.90;100.00;101522.16;5065055;28;20199;-72
2021/08/25 02:57:11;;;;;;;5.40;2.93;;;;;;;7.93;100.00;101519.56;5067983;28;20224;-72
2021/08/25 02:59:38;;;;;;;7.83;3.50;;;;;;;7.88;100.00;101517.81;5069643;28;20673;-72
2021/08/25 03:02:04;;;;;;;4.83;3.00;;;;;;;7.76;100.00;101511.78;5058678;28;20221;-72
2021/08/25 03:04:31;;;;;;;5.47;3.03;;;;;;;7.77;100.00;101510.94;5068875;28;20595;-72
2021/08/25 03:06:57;;;;;;;3.80;2.67;;;;;;;7.86;100.00;101506.59;5064794;28;20234;-72
2021/08/25 03:09:23;;;;;;;5.80;3.53;;;;;;;8.02;100.00;101513.50;5062092;28;20548;-72
2021/08/25 03:11:50;;;;;;;3.63;2.87;;;;;;;7.67;100.00;101506.59;5065105;28;20199;-72
2021/08/25 03:14:17;;;;;;;5.87;3.30;;;;;;;7.48;100.00;101502.28;5069657;28;20647;-72
2021/08/25 03:16:44;;;;;;;4.77;2.87;;;;;;;7.56;100.00;101508.31;5058695;28;20318;-72
2021/08/25 03:19:10;;;;;;;4.47;3.13;;;;;;;7.66;100.00;101499.66;5065245;28;20203;-72
2021/08/25 03:21:40;;;;;;;5.07;2.73;;;;;;;7.58;100.00;101491.91;5064965;28;20668;-72
2021/08/25 03:24:07;;;;;;;7.90;3.13;;;;;;;7.67;100.00;101497.94;5068549;28;20620;-72
2021/08/25 03:26:33;;;;;;;5.50;3.33;;;;;;;7.63;100.00;101493.63;5067436;28;20801;-72
2021/08/25 03:29:00;;;;;;;4.47;2.90;;;;;;;7.63;100.00;101497.06;5060924;28;20567;-72
2021/08/25 03:31:27;;;;;;;4.27;2.77;;;;;;;7.46;100.00;101493.59;5061402;28;20214;-72
2021/08/25 03:33:54;;;;;;;3.80;2.93;;;;;;;7.61;100.00;101488.44;5060173;28;20209;-72
2021/08/25 03:36:20;;;;;;;4.70;2.93;;;;;;;7.50;100.00;101482.38;5060704;28;20214;-72
2021/08/25 03:38:47;;;;;;;4.37;3.07;;;;;;;7.53;100.00;101485.84;5065726;28;20588;-72
2021/08/25 03:41:13;;;;;;;4.23;2.50;;;;;;;7.47;100.00;101480.63;5062656;28;20202;-72
2021/08/25 03:43:40;;;;;;;3.30;2.53;;;;;;;7.31;100.00;101484.94;5068677;28;20214;-71
2021/08/25 03:46:06;;;;;;;3.93;2.70;;;;;;;7.53;100.00;101490.16;5063160;28;20196;-72
2021/08/25 03:48:34;;;;;;;4.60;2.80;;;;;;;7.45;100.00;101491.88;5064188;28;20230;-72
2021/08/25 03:51:00;;;;;;;4.37;2.53;;;;;;;7.25;100.00;101487.56;5058652;28;20253;-72
2021/08/25 03:53:27;;;;;;;3.53;2.27;;;;;;;7.31;100.00;101478.91;5061534;28;20696;-72
2021/08/25 03:55:53;;;;;;;3.67;2.60;;;;;;;7.43;100.00;101478.06;5058382;28;20659;-71
2021/08/25 03:58:19;;;;;;;3.03;2.60;;;;;;;7.59;100.00;101477.19;5066613;28;20226;-71
2021/08/25 04:00:46;;;;;;;4.20;2.77;;;;;;;7.66;100.00;101481.50;5066968;28;20195;-72
2021/08/25 04:03:12;;;;;;;4.57;2.43;;;;;;;7.58;100.00;101476.31;5063800;28;20203;-72
2021/08/25 04:05:40;;;;;;;3.10;2.30;;;;;;;7.48;100.00;101472.00;5057950;28;20219;-72
2021/08/25 04:08:06;;;;;;;3.27;2.30;;;;;;;7.25;100.00;101471.13;5067414;28;20222;-72
2021/08/25 04:10:33;;;;;;;4.27;2.97;;;;;;;7.43;100.00;101472.88;5067109;28;20447;-72
2021/08/25 04:12:59;;;;;;;3.37;2.40;;;;;;;7.33;100.00;101471.97;5057036;28;20735;-72
2021/08/25 04:15:25;;;;;;;2.80;2.57;;;;;;;7.58;100.00;101465.06;5066712;28;20220;-72
2021/08/25 04:17:52;;;;;;;4.03;2.47;;;;;;;7.39;100.00;101459.03;5059956;28;20222;-72
2021/08/25 04:20:18;;;;;;;4.40;2.97;;;;;;;7.48;100.00;101459.03;5062696;28;20221;-72
2021/08/25 04:22:46;;;;;;;3.53;2.73;;;;;;;7.70;100.00;101453.81;5065961;28;20213;-72
2021/08/25 04:25:12;;;;;;;3.23;2.57;;;;;;;7.88;100.00;101448.59;5066368;28;20304;-72
2021/08/25 04:27:39;;;;;;;4.90;2.90;;;;;;;7.50;100.00;101456.44;5060624;28;20730;-72
2021/08/25 04:30:06;;;;;;;3.63;2.67;;;;;;;7.47;100.00;101457.28;5060393;28;20211;-72
2021/08/25 04:32:32;;;;;;;5.03;3.20;;;;;;;7.71;100.00;101461.59;5062459;28;20198;-72
2021/08/25 04:34:59;;;;;;;5.03;2.77;;;;;;;7.65;100.00;101459.03;5054001;28;20294;-72
2021/08/25 04:37:25;;;;;;;4.57;3.00;;;;;;;7.38;100.00;101462.47;5058261;28;20223;-72
2021/08/25 04:39:53;;;;;;;5.53;2.90;;;;;;;7.67;100.00;101461.59;5062111;28;20301;-72
2021/08/25 04:42:19;;;;;;;3.70;3.03;;;;;;;7.78;100.00;101458.13;5054477;28;20203;-72
2021/08/25 04:44:46;;;;;;;6.70;3.40;;;;;;;7.95;100.00;101458.13;5058986;28;20213;-72
2021/08/25 04:47:12;;;;;;;6.80;3.93;;;;;;;8.09;100.00;101465.88;5058599;28;20227;-72
2021/08/25 04:49:38;;;;;;;5.43;3.73;;;;;;;8.18;100.00;101462.38;5060799;28;20576;-72
2021/08/25 04:52:06;;;;;;;6.70;3.43;;;;;;;8.22;100.00;101464.09;5064099;28;20656;-72
2021/08/25 04:54:33;;;;;;;5.23;3.57;;;;;;;8.19;100.00;101458.91;5057858;28;20237;-72
2021/08/25 04:57:00;;;;;;;6.37;3.87;;;;;;;8.37;100.00;101462.31;5063392;28;20280;-72
2021/08/25 04:59:27;;;;;;;6.77;4.00;;;;;;;8.21;100.00;101461.50;5056595;28;20195;-72
2021/08/25 05:01:53;;;;;;;9.30;5.10;;;;;;;8.21;100.00;101459.75;5053698;28;20199;-72
2021/08/25 05:04:20;;;;;;;11.27;6.63;;;;;;;8.26;100.00;101455.41;5055569;28;20225;-72
2021/08/25 05:06:46;;;;;;;9.50;5.67;;;;;;;8.36;100.00;101461.47;5051466;28;20219;-72
2021/08/25 05:09:12;;;;;;;10.27;5.67;;;;;;;8.42;100.00;101457.97;5064660;28;20207;-72
2021/08/25 05:11:39;;;;;;;7.93;5.20;;;;;;;8.31;100.00;101460.59;5061900;28;20219;-72
2021/08/25 05:14:07;;;;;;;9.13;5.83;;;;;;;8.32;100.00;101458.00;5052227;28;20745;-72
2021/08/25 05:16:33;;;;;;;8.17;5.03;;;;;;;8.35;100.00;101464.91;5060255;28;20202;-72
2021/08/25 05:19:00;;;;;;;9.73;4.93;;;;;;;8.15;100.00;101460.66;5055480;28;20289;-72
2021/08/25 05:21:26;;;;;;;6.57;4.43;;;;;;;8.22;100.00;101455.44;5055869;28;20911;-72
2021/08/25 05:23:53;;;;;;;6.20;4.50;;;;;;;8.27;100.00;101457.16;5050052;28;20210;-72
2021/08/25 05:26:19;;;;;;;8.77;4.47;;;;;;;8.32;100.00;101454.56;5057714;28;20563;-72
2021/08/25 05:28:46;;;;;;;6.60;4.17;;;;;;;8.53;100.00;101454.50;5059891;28;20694;-72
2021/08/25 05:31:13;;;;;;;7.17;4.40;;;;;;;8.51;100.00;101450.16;5050540;28;20203;-72
2021/08/25 05:33:40;;;;;;;7.63;4.00;;;;;;;8.57;100.00;101447.53;5059897;28;20195;-72
2021/08/25 05:36:06;;;;;;;7.93;4.10;;;;;;;8.58;100.00;101445.81;5056157;28;20657;-72
2021/08/25 05:38:32;;;;;;;6.77;4.40;;;;;;;8.53;100.00;101446.69;5054171;28;20258;-72
2021/08/25 05:40:59;;;;;;;10.17;4.40;;;;;;;8.78;100.00;101437.91;5055318;28;20670;-72
2021/08/25 05:43:25;;;;;;;9.33;4.67;;;;;;;8.83;100.00;101439.59;5057274;28;20211;-72
2021/08/25 05:45:51;;;;;;;7.87;4.40;;;;;;;8.95;100.00;101437.78;5056365;28;20219;-72
2021/08/25 05:48:19;;;;;;;9.60;4.50;;;;;;;8.90;100.00;101437.84;5060553;28;20648;-72
2021/08/25 05:50:46;;;;;;;6.90;4.40;;;;;;;9.06;100.00;101428.19;5059068;28;20210;-72
2021/08/25 05:53:12;;;;;;;9.40;4.37;;;;;;;9.06;100.00;101425.59;5057777;28;20202;-72
2021/08/25 05:55:38;;;;;;;6.93;4.50;;;;;;;9.19;100.00;101426.38;5066874;28;20200;-71
2021/08/25 05:58:05;;;;;;;8.63;4.80;;;;;;;9.18;100.00;101429.81;5060625;28;20220;-72
2021/08/25 06:00:32;;;;;;;7.03;4.47;;;;;;;9.24;100.00;101417.63;5051990;28;20961;-72
2021/08/25 06:02:58;;;;;;;7.90;4.90;;;;;;;9.44;100.00;101419.22;5061161;28;20209;-72
2021/08/25 06:05:26;;;;;;;7.13;4.57;;;;;;;9.36;100.00;101418.44;5055494;28;20379;-72
2021/08/25 06:07:53;;;;;;;6.43;3.97;;;;;;;9.76;100.00;101413.72;5063339;28;20226;-72
2021/08/25 06:10:19;;;;;;;9.57;5.20;;;;;;;9.57;100.00;101418.22;5059885;28;20197;-72
2021/08/25 06:12:46;;;;;;;8.97;4.40;;;;;;;9.69;100.00;101418.97;5053968;28;20208;-72
2021/08/25 06:15:12;;;;;;;7.97;4.80;;;;;;;9.86;100.00;101417.06;5058149;28;20555;-72
2021/08/25 06:17:39;;;;;;;7.90;4.87;;;;;;;9.98;100.00;101423.91;5065916;28;20220;-72
2021/08/25 06:20:06;;;;;;;9.20;4.77;;;;;;;9.99;100.00;101423.00;5061051;28;20213;-72
2021/08/25 06:22:34;;;;;;;10.07;4.83;;;;;;;9.98;100.00;101419.53;5054029;28;20209;-72
2021/08/25 06:25:01;;;;;;;8.83;5.40;;;;;;;10.13;100.00;101407.22;5056541;28;20220;-72
2021/08/25 06:27:27;;;;;;;8.27;4.80;;;;;;;10.21;100.00;101410.59;5067003;28;20317;-72
2021/08/25 06:29:53;;;;;;;8.13;5.07;;;;;;;10.22;100.00;101418.41;5059522;28;20678;-72
2021/08/25 06:32:20;;;;;;;9.23;5.40;;;;;;;10.28;100.00;101419.22;5061339;28;20225;-72
2021/08/25 06:34:47;;;;;;;6.97;4.67;;;;;;;10.48;100.00;101413.78;5051477;28;20202;-72
2021/08/25 06:37:13;;;;;;;6.37;4.40;;;;;;;10.50;100.00;101419.81;5064641;28;20225;-72
2021/08/25 06:39:41;;;;;;;7.63;4.63;;;;;;;10.66;100.00;101413.53;5059698;28;20567;-72
2021/08/25 06:42:07;;;;;;;7.43;4.70;;;;;;;10.73;100.00;101416.91;5057590;28;20209;-72
2021/08/25 06:44:34;;;;;;;9.90;4.80;;;;;;;10.85;100.00;101410.66;5057953;28;20228;-72
2021/08/25 06:47:00;;;;;;;8.07;4.20;;;;;;;11.00;100.00;101405.22;5059924;28;20225;-72
2021/08/25 06:49:26;;;;;;;5.63;3.70;;;;;;;11.04;100.00;101413.84;5060081;28;20202;-72
2021/08/25 06:51:53;;;;;;;4.77;3.50;;;;;;;11.12;100.00;101406.78;5064595;28;20221;-72
2021/08/25 06:54:19;;;;;;;7.03;4.10;;;;;;;11.22;100.00;101403.13;5059682;28;20207;-72
2021/08/25 06:56:47;;;;;;;5.33;3.43;;;;;;;11.29;100.00;101403.88;5056194;28;20219;-72
2021/08/25 06:59:13;;;;;;;7.40;3.80;;;;;;;11.38;100.00;101395.91;5060983;28;20236;-72
2021/08/25 07:01:40;;;;;;;5.40;3.67;;;;;;;11.46;100.00;101400.97;5064420;28;20206;-72
2021/08/25 07:04:06;;;;;;;5.50;3.37;;;;;;;11.56;100.00;101395.56;5061819;28;20703;-72
2021/08/25 07:06:32;;;;;;;6.47;3.77;;;;;;;11.61;100.00;101400.72;5052863;28;20221;-72
2021/08/25 07:08:59;;;;;;;7.73;3.50;;;;;;;11.71;100.00;101396.16;5058298;28;20217;-72
2021/08/25 07:11:26;;;;;;;4.90;2.97;;;;;;;11.74;100.00;101394.34;5062315;28;20205;-72
2021/08/25 07:13:54;;;;;;;7.00;3.07;;;;;;;11.86;100.00;101384.59;5056267;28;20207;-72
2021/08/25 07:16:20;;;;;;;6.83;3.80;;;;;;;11.98;100.00;101384.38;5065932;28;20209;-72
2021/08/25 07:18:47;;;;;;;5.90;3.23;;;;;;;12.05;100.00;101387.72;5061805;28;20684;-72
2021/08/25 07:21:14;;;;;;;4.70;3.00;;;;;;;12.15;100.00;101384.00;5066463;28;20202;-73
2021/08/25 07:23:40;;;;;;;7.27;3.10;;;;;;;12.21;100.00;101381.28;5064778;28;20745;-72
2021/08/25 07:26:07;;;;;;;7.73;3.37;;;;;;;12.31;100.00;101385.44;5066967;28;20211;-72
2021/08/25 07:28:34;;;;;;;8.27;3.23;;;;;;;12.43;99.55;101389.53;5065256;28;20309;-72
2021/08/25 07:31:01;;;;;;;4.53;2.90;;;;;;;12.57;99.17;101377.91;5069133;28;20209;-72
2021/08/25 07:33:28;;;;;;;4.73;3.03;;;;;;;12.71;97.80;101386.28;5073094;28;20657;-73
2021/08/25 07:35:54;;;;;;;5.03;2.87;;;;;;;12.76;97.23;101388.81;5064650;28;20254;-73
2021/08/25 07:38:21;;;;;;;5.60;3.23;;;;;;;12.93;98.12;101389.28;5067001;28;20692;-72
2021/08/25 07:40:47;;;;;;;5.33;2.83;;;;;;;13.08;98.42;101380.19;5067963;28;20211;-72
2021/08/25 07:43:13;;;;;;;4.83;3.27;;;;;;;13.10;91.23;101393.25;5066812;28;20609;-72
2021/08/25 07:45:40;;;;;;;6.13;2.90;;;;;;;13.23;91.60;101392.06;5071307;28;20220;-72
2021/08/25 07:48:07;;;;;;;5.67;2.97;;;;;;;13.36;92.33;101385.63;5069643;28;20309;-72
2021/08/25 07:50:34;;;;;;;7.97;2.90;;;;;;;13.53;92.51;101381.72;5069025;28;20215;-72
2021/08/25 07:53:01;;;;;;;5.37;3.60;;;;;;;13.60;90.94;101381.50;5064617;28;20328;-72
2021/08/25 07:55:28;;;;;;;6.17;2.70;;;;;;;13.71;88.12;101388.22;5068627;28;20278;-72
2021/08/25 07:57:54;;;;;;;4.87;3.10;;;;;;;13.83;88.58;101385.28;5060217;28;20249;-73
2021/08/25 08:00:21;;;;;;;5.90;2.83;;;;;;;13.94;89.92;101377.97;5062563;28;20219;-72
2021/08/25 08:02:47;;;;;;;4.73;2.83;;;;;;;14.00;88.50;101372.56;5065243;28;20206;-73
2021/08/25 08:05:15;;;;;;;3.90;2.77;;;;;;;14.06;88.01;101381.16;5067275;28;20226;-73
2021/08/25 08:07:41;;;;;;;5.43;2.93;;;;;;;14.08;87.17;101374.94;5059621;28;20279;-73
2021/08/25 08:10:08;;;;;;;4.93;2.93;;;;;;;14.21;87.48;101370.19;5068153;28;20217;-73
2021/08/25 08:12:35;;;;;;;4.17;2.77;;;;;;;14.44;85.10;101372.16;5073771;28;20209;-73
2021/08/25 08:15:04;;;;;;;4.00;2.70;;;;;;;14.50;86.04;101366.72;5063601;28;20295;-73
2021/08/25 08:17:31;;;;;;;3.87;2.63;;;;;;;14.61;83.58;101360.31;5054021;28;20234;-73
2021/08/25 08:19:57;;;;;;;5.20;2.63;;;;;;;14.71;83.58;101359.97;5060924;28;20203;-73
2021/08/25 08:22:25;;;;;;;3.10;2.30;;;;;;;14.82;80.69;101362.25;5062344;28;20691;-73
2021/08/25 08:24:52;;;;;;;4.63;2.60;;;;;;;14.92;81.23;101355.78;5056218;28;20195;-72
2021/08/25 08:27:18;;;;;;;4.63;2.47;;;;;;;14.99;81.09;101353.81;5058218;28;20289;-72
2021/08/25 08:29:44;;;;;;;4.80;2.43;;;;;;;15.07;80.03;101353.56;5058844;28;20213;-73
2021/08/25 08:32:11;;;;;;;3.77;2.50;;;;;;;15.12;79.21;101352.50;5062869;28;20205;-73
2021/08/25 08:34:37;;;;;;;3.53;2.37;;;;;;;15.25;78.31;101347.69;5061698;28;20226;-72
2021/08/25 08:37:05;;;;;;;3.80;2.03;;;;;;;15.37;78.41;101343.78;5064637;28;20310;-72
2021/08/25 08:39:33;;;;;;;4.63;2.40;;;;;;;15.50;77.46;101345.06;5061912;28;20863;-73
2021/08/25 08:41:59;;;;;;;2.80;2.10;;;;;;;15.56;75.63;101341.38;5065189;28;20219;-73
2021/08/25 08:44:27;;;;;;;3.23;2.33;;;;;;;15.65;76.02;101338.41;5063873;28;20318;-73
2021/08/25 08:46:54;;;;;;;4.13;2.30;;;;;;;15.79;74.94;101334.47;5060492;28;20238;-72
2021/08/25 08:49:22;;;;;;;3.10;2.17;;;;;;;15.92;74.10;101337.47;5063225;28;20705;-72
2021/08/25 08:51:51;;;;;;;5.40;2.40;;;;;;;15.96;72.89;101332.06;5067677;28;20219;-72
2021/08/25 08:54:19;;;;;;;3.40;2.10;;;;;;;16.09;71.13;101338.59;5065902;28;20308;-72
2021/08/25 08:56:49;;;;;;;4.47;2.40;;;;;;;16.10;65.87;101339.44;5065570;28;21157;-73
2021/08/25 08:59:15;;;;;;;4.50;2.00;;;;;;;16.13;66.26;101333.19;5061886;28;20760;-73
2021/08/25 09:01:42;;;;;;;4.10;1.90;;;;;;;16.25;66.03;101330.97;5060246;28;20212;-73
2021/08/25 09:04:30;;;;;;;4.87;2.17;;;;;;;16.44;68.70;101328.44;5060248;28;20213;-73
2021/08/25 09:06:56;;;;;;;3.57;2.17;;;;;;;16.46;63.46;101333.66;5062390;28;20222;-73
2021/08/25 09:09:22;;;;;;;3.30;2.00;;;;;;;16.61;66.99;101324.31;5063758;28;20205;-73
2021/08/25 09:11:51;;;;;;;3.60;2.37;;;;;;;16.66;67.41;101314.44;5063824;28;20220;-73
2021/08/25 09:14:18;;;;;;;3.43;2.20;;;;;;;16.74;67.40;101309.72;5065056;28;20208;-73
2021/08/25 09:16:46;;;;;;;3.10;2.27;;;;;;;16.96;63.00;101308.88;5057735;28;20222;-73
2021/08/25 09:19:14;;;;;;;3.10;2.00;;;;;;;17.10;63.70;101311.78;5071503;28;20194;-73
2021/08/25 09:21:43;;;;;;;3.77;2.37;;;;;;;17.15;61.65;101303.66;5065738;28;20206;-73
2021/08/25 09:24:11;;;;;;;3.67;2.20;;;;;;;17.20;61.67;101299.03;5063252;28;20198;-73
2021/08/25 09:26:59;;;;;;;3.63;2.17;;;;;;;17.26;62.66;101301.44;5065496;28;20230;-73
2021/08/25 09:29:26;;;;;;;3.73;1.93;;;;;;;17.40;64.82;101285.88;5060788;28;20208;-73
2021/08/25 09:31:53;;;;;;;4.70;2.20;;;;;;;17.54;65.80;101281.78;5064179;28;20210;-73
2021/08/25 09:34:27;;;;;;;5.97;2.40;;;;;;;17.58;65.27;101285.97;5066133;28;20209;-72
2021/08/25 09:37:07;;;;;;;3.50;2.20;;;;;;;17.52;62.95;101288.88;5068575;28;20227;-72
2021/08/25 09:39:34;;;;;;;3.97;2.30;;;;;;;17.62;62.39;101278.78;5062117;28;20289;-72
2021/08/25 09:42:04;;;;;;;4.33;2.70;;;;;;;17.58;62.21;101275.41;5067788;28;20682;-72
2021/08/25 09:44:32;;;;;;;3.83;2.37;;;;;;;17.66;64.46;101262.75;5063263;28;20824;-72
2021/08/25 09:46:58;;;;;;;4.87;2.27;;;;;;;17.59;65.82;101269.25;5068158;28;20226;-72
2021/08/25 09:49:24;;;;;;;3.33;2.00;;;;;;;17.58;63.48;101272.78;5065882;28;20195;-73
2021/08/25 09:51:54;;;;;;;5.33;2.33;;;;;;;17.64;62.11;101267.22;5065467;28;20591;-73
2021/08/25 09:54:21;;;;;;;3.77;2.10;;;;;;;17.65;62.86;101262.81;5077435;28;20799;-72
2021/08/25 09:56:51;;;;;;;2.70;1.90;;;;;;;17.78;64.25;101253.41;5068186;28;20253;-72
2021/08/25 09:59:17;;;;;;;3.47;1.87;;;;;;;18.03;61.69;101268.13;5065517;28;20203;-72
2021/08/25 10:01:45;;;;;;;2.87;2.00;;;;;;;18.12;61.15;101249.22;5068827;28;20206;-72
2021/08/25 10:04:14;;;;;;;3.93;2.33;;;;;;;18.13;57.95;101248.28;5069760;28;20301;-72
2021/08/25 10:06:42;;;;;;;4.87;1.87;;;;;;;18.29;60.93;101236.06;5064327;28;20735;-72
2021/08/25 10:09:10;;;;;;;3.50;2.20;;;;;;;18.43;57.95;101242.44;5062475;28;20226;-72
2021/08/25 10:11:39;;;;;;;3.83;1.90;;;;;;;18.49;55.91;101244.81;5070012;28;20202;-73
2021/08/25 10:14:11;;;;;;;5.77;2.83;;;;;;;18.60;55.82;101241.63;5068046;28;20540;-73
2021/08/25 10:16:40;;;;;;;2.70;1.80;;;;;;;18.78;55.84;101239.84;5068007;28;20248;-73
2021/08/25 10:19:30;;;;;;;7.03;2.10;;;;;;;18.74;54.88;101247.91;5062775;28;20437;-73
2021/08/25 10:21:59;;;;;;;2.57;1.77;;;;;;;18.98;54.72;101236.19;5065148;28;20334;-73
2021/08/25 10:24:26;;;;;;;3.43;1.90;;;;;;;19.14;53.99;101241.53;5061518;28;20762;-73
2021/08/25 10:27:08;;;;;;;3.20;1.93;;;;;;;19.41;54.58;101228.66;5063647;28;20222;-73
2021/08/25 10:30:09;;;;;;;3.47;2.10;;;;;;;19.59;50.09;101232.94;5061640;28;20210;-73
2021/08/25 10:32:37;;;;;;;3.33;2.03;;;;;;;19.79;50.00;101228.41;5063995;28;20206;-73
2021/08/25 10:35:17;;;;;;;2.37;1.80;;;;;;;19.71;48.71;101222.66;5067861;28;20202;-73
2021/08/25 10:37:47;;;;;;;3.07;1.93;;;;;;;19.65;50.44;101215.91;5073867;28;20217;-73
2021/08/25 10:40:15;;;;;;;3.87;2.03;;;;;;;19.36;50.54;101217.47;5060047;28;20213;-73
2021/08/25 10:42:50;;;;;;;3.67;2.27;;;;;;;19.51;51.65;101203.44;5070403;28;20612;-73
2021/08/25 10:45:55;;;;;;;2.40;1.80;;;;;;;19.75;51.31;101188.03;5063809;28;20234;-73
2021/08/25 10:48:37;;;;;;;2.73;1.93;;;;;;;19.93;52.22;101191.44;5065587;28;20217;-73
2021/08/25 10:51:03;;;;;;;2.87;1.93;;;;;;;19.86;51.86;101179.50;5064986;28;20202;-73
2021/08/25 10:53:38;;;;;;;4.07;2.10;;;;;;;19.79;52.51;101178.97;5062691;28;20206;-73
2021/08/25 10:56:09;;;;;;;3.37;1.97;;;;;;;19.88;52.67;101168.84;5066182;28;20290;-73
2021/08/25 10:58:47;;;;;;;4.07;1.90;;;;;;;19.80;51.48;101172.75;5064468;28;20580;-73
2021/08/25 11:01:23;;;;;;;2.63;1.97;;;;;;;19.89;51.17;101173.16;5058379;28;20788;-73
2021/08/25 11:03:49;;;;;;;3.73;2.00;;;;;;;19.86;54.03;101158.34;5061942;28;20206;-73
2021/08/25 11:06:40;;;;;;;2.97;2.00;;;;;;;19.64;51.71;101151.53;5064810;28;20229;-73
2021/08/25 11:09:28;;;;;;;4.33;2.10;;;;;;;19.66;53.85;101148.81;5059683;28;20206;-73
2021/08/25 11:11:57;;;;;;;4.80;2.37;;;;;;;19.79;54.05;101139.31;5054741;28;20280;-73
2021/08/25 11:14:29;;;;;;;3.23;2.23;;;;;;;20.03;52.51;101141.47;5063212;28;20306;-73
2021/08/25 11:17:05;;;;;;;2.93;2.00;;;;;;;20.11;53.06;101131.31;5063516;28;20226;-73
2021/08/25 11:19:33;;;;;;;3.93;2.20;;;;;;;20.45;53.13;101116.06;5062888;28;20214;-73
2021/08/25 11:22:01;;;;;;;4.43;2.40;;;;;;;20.63;54.44;101114.13;5066262;28;20690;-73
2021/08/25 11:24:32;;;;;;;3.70;2.20;;;;;;;20.57;53.54;101114.47;5068673;28;20754;-73
2021/08/25 11:26:59;;;;;;;3.27;2.27;;;;;;;20.49;51.33;101119.38;5056944;28;20615;-73